Time;durP1;ratioP1;P1;durP2;ratioP2;P2;SDS_P1;SDS_P2;PMS_P1;PMS_P2;Temp;Humidity;BMP_temperature;BMP_pressure;BME280_temperature;BME280_humidity;BME280_pressure;Samples;Min_cycle;Max_cycle;Signal;HPM_P1;HPM_P2
2022/04/29 00:01:22;;;;;;;6.00;1.80;;;;;;;14.10;38.93;100031.08;25109;1314;3028266;-67
2022/04/29 00:03:53;;;;;;;4.00;1.60;;;;;;;14.11;39.22;100028.88;25116;1314;3026077;-66
2022/04/29 00:06:24;;;;;;;2.60;1.50;;;;;;;14.09;39.18;100029.88;24761;1315;3534136;-64
2022/04/29 00:08:53;;;;;;;6.00;1.40;;;;;;;14.10;39.21;100028.95;25088;1314;3027049;-67
2022/04/29 00:11:22;;;;;;;4.20;1.70;;;;;;;14.12;39.01;100027.26;25089;1314;3028698;-62
2022/04/29 00:13:53;;;;;;;4.20;1.50;;;;;;;14.11;38.99;100031.66;25071;1315;3051337;-66
2022/04/29 00:16:27;;;;;;;4.30;1.60;;;;;;;14.07;39.25;100030.52;25144;1314;3052708;-64
2022/04/29 00:18:57;;;;;;;4.40;1.70;;;;;;;14.04;39.25;100028.63;25155;1314;3026227;-65
2022/04/29 00:21:26;;;;;;;2.40;1.40;;;;;;;14.07;39.20;100029.98;25097;1314;3026588;-66
2022/04/29 00:23:56;;;;;;;3.80;1.80;;;;;;;14.09;38.91;100028.85;25090;1314;3054464;-67
2022/04/29 00:26:27;;;;;;;7.10;1.70;;;;;;;14.02;39.30;100025.58;25116;1314;3026693;-66
2022/04/29 00:28:56;;;;;;;3.60;1.70;;;;;;;13.99;39.09;100027.40;25110;1314;3027458;-67
2022/04/29 00:31:28;;;;;;;3.20;1.50;;;;;;;13.99;38.99;100028.21;25096;1315;3026886;-64
2022/04/29 00:34:00;;;;;;;5.90;1.80;;;;;;;14.00;39.05;100029.05;25087;1314;3055332;-71
2022/04/29 00:36:30;;;;;;;4.10;1.90;;;;;;;14.03;39.02;100031.88;25140;1314;3026428;-65
2022/04/29 00:39:04;;;;;;;7.30;1.60;;;;;;;14.00;39.18;100028.02;25096;1315;3069287;-69
2022/04/29 00:41:35;;;;;;;2.50;1.40;;;;;;;14.00;39.30;100024.70;25106;1315;3026249;-62
2022/04/29 00:44:07;;;;;;;7.20;1.90;;;;;;;13.95;39.32;100022.19;25145;1314;3026475;-63
2022/04/29 00:46:41;;;;;;;3.00;1.50;;;;;;;13.86;39.72;100021.70;25114;1314;3070924;-69
2022/04/29 00:49:14;;;;;;;6.70;1.40;;;;;;;13.86;39.52;100021.35;25136;1314;3051526;-65
2022/04/29 00:51:57;;;;;;;5.50;1.20;;;;;;;13.87;39.70;100018.48;25144;1314;3055338;-64
2022/04/29 00:54:30;;;;;;;4.10;1.50;;;;;;;13.82;40.00;100021.95;25153;1314;3026468;-66
2022/04/29 00:56:59;;;;;;;4.90;1.60;;;;;;;13.84;39.77;100021.98;25132;1314;3052334;-65
2022/04/29 01:00:02;;;;;;;4.00;1.70;;;;;;;13.84;39.57;100023.57;25133;1314;3028930;-67
2022/04/29 01:02:31;;;;;;;4.70;1.50;;;;;;;13.84;39.75;100029.04;25130;1314;3071478;-66
2022/04/29 01:05:09;;;;;;;2.20;1.40;;;;;;;13.83;39.68;100029.30;25110;1315;3051775;-67
2022/04/29 01:07:41;;;;;;;3.80;1.60;;;;;;;13.79;39.73;100029.20;25100;1314;3026566;-64
2022/04/29 01:10:12;;;;;;;3.60;1.20;;;;;;;13.80;39.75;100033.35;25111;1315;3030641;-67
2022/04/29 01:12:42;;;;;;;2.20;1.30;;;;;;;13.77;39.60;100036.19;25152;1314;3027812;-66
2022/04/29 01:15:13;;;;;;;8.10;1.90;;;;;;;13.79;39.51;100033.76;25094;1314;3026709;-66
2022/04/29 01:17:45;;;;;;;8.80;1.50;;;;;;;13.81;39.32;100033.13;25125;1314;3026481;-67
2022/04/29 01:20:16;;;;;;;3.40;1.40;;;;;;;13.82;39.34;100042.37;25136;1314;3028052;-68
2022/04/29 01:22:48;;;;;;;2.40;1.30;;;;;;;13.77;39.39;100042.37;25039;1315;3026893;-66
2022/04/29 01:25:20;;;;;;;3.30;1.80;;;;;;;13.80;39.15;100039.02;25201;1314;3027028;-66
2022/04/29 01:27:53;;;;;;;3.30;1.30;;;;;;;13.79;39.33;100036.97;25255;1315;3027221;-67
2022/04/29 01:30:23;;;;;;;2.40;1.40;;;;;;;13.67;39.29;100035.98;25226;1314;3026693;-64
2022/04/29 01:32:55;;;;;;;2.70;1.30;;;;;;;13.63;39.37;100035.02;25231;1315;3026537;-66
2022/04/29 01:35:24;;;;;;;6.10;1.50;;;;;;;13.65;39.37;100033.80;25103;1314;3030125;-65
2022/04/29 01:37:54;;;;;;;5.30;1.30;;;;;;;13.69;39.14;100032.86;25077;1314;3026351;-65
2022/04/29 01:40:24;;;;;;;6.90;1.60;;;;;;;13.70;38.62;100033.49;25112;1315;3030017;-67
2022/04/29 01:42:53;;;;;;;2.10;1.50;;;;;;;13.72;38.36;100029.65;25119;1314;3026702;-66
2022/04/29 01:45:22;;;;;;;3.60;1.40;;;;;;;13.75;38.34;100030.18;25105;1315;3054983;-66
2022/04/29 01:47:58;;;;;;;5.20;1.40;;;;;;;13.69;38.31;100027.21;25131;1314;3053685;-66
2022/04/29 01:50:46;;;;;;;3.90;1.40;;;;;;;13.66;38.06;100029.34;25095;1315;3071508;-66
2022/04/29 01:53:16;;;;;;;4.50;1.30;;;;;;;13.69;38.00;100028.59;25121;1314;3026545;-66
2022/04/29 01:55:46;;;;;;;4.20;1.40;;;;;;;13.73;37.82;100027.67;25115;1314;3026565;-63
2022/04/29 01:58:16;;;;;;;5.90;1.50;;;;;;;13.70;37.69;100022.40;25162;1314;3026304;-67
2022/04/29 02:00:46;;;;;;;3.10;1.20;;;;;;;13.67;37.61;100021.66;25113;1314;3026101;-69
2022/04/29 02:03:17;;;;;;;2.70;1.20;;;;;;;13.69;37.30;100024.55;25080;1314;3026681;-67
2022/04/29 02:05:46;;;;;;;4.00;1.40;;;;;;;13.70;37.32;100023.64;25121;1314;3026950;-67
2022/04/29 02:08:16;;;;;;;5.50;1.40;;;;;;;13.69;37.17;100025.81;25092;1314;3027045;-67
2022/04/29 02:10:47;;;;;;;2.60;0.90;;;;;;;13.66;37.32;100028.61;25126;1314;3026350;-66
2022/04/29 02:13:24;;;;;;;6.30;1.30;;;;;;;13.67;37.24;100031.55;25128;1314;3051687;-68
2022/04/29 02:16:13;;;;;;;2.70;1.80;;;;;;;13.66;37.50;100035.28;25150;1315;3052255;-68
2022/04/29 02:18:44;;;;;;;4.20;1.40;;;;;;;13.65;37.64;100030.63;25117;1315;3026218;-64
2022/04/29 02:21:14;;;;;;;2.60;1.40;;;;;;;13.64;37.46;100030.85;25096;1314;3026540;-66
2022/04/29 02:23:46;;;;;;;3.20;1.60;;;;;;;13.64;37.24;100033.70;25073;1315;3027693;-69
2022/04/29 02:26:15;;;;;;;2.30;1.50;;;;;;;13.61;37.65;100032.85;25133;1314;3026875;-66
2022/04/29 02:28:45;;;;;;;5.40;1.30;;;;;;;13.57;37.73;100036.79;25129;1314;3026924;-64
2022/04/29 02:31:22;;;;;;;2.70;1.30;;;;;;;13.53;37.98;100035.61;25104;1315;3071659;-66
2022/04/29 02:33:52;;;;;;;5.20;1.60;;;;;;;13.53;37.89;100034.59;25115;1314;3028942;-66
2022/04/29 02:36:22;;;;;;;4.60;1.60;;;;;;;13.55;37.74;100033.74;25123;1314;3050889;-67
2022/04/29 02:38:53;;;;;;;3.40;1.50;;;;;;;13.49;38.06;100034.09;25113;1315;3026667;-67
2022/04/29 02:41:23;;;;;;;4.70;1.70;;;;;;;13.46;37.69;100033.58;25107;1314;3028648;-66
2022/04/29 02:43:52;;;;;;;4.20;1.60;;;;;;;13.43;37.42;100031.48;25098;1315;3026442;-65
2022/04/29 02:46:23;;;;;;;7.80;2.00;;;;;;;13.43;37.48;100042.22;25094;1314;3072016;-67
2022/04/29 02:48:53;;;;;;;2.30;1.40;;;;;;;13.44;37.70;100042.52;25126;1314;3026412;-65
2022/04/29 02:51:21;;;;;;;3.20;1.30;;;;;;;13.46;37.37;100046.11;25121;1315;3026473;-64
2022/04/29 02:53:53;;;;;;;6.80;1.80;;;;;;;13.43;37.51;100052.45;25057;1317;3070535;-66
2022/04/29 02:56:21;;;;;;;3.60;1.60;;;;;;;13.39;37.83;100053.71;25131;1314;3026913;-66
2022/04/29 02:59:01;;;;;;;3.30;1.30;;;;;;;13.38;37.77;100058.21;25134;1315;3054677;-67
2022/04/29 03:01:30;;;;;;;2.50;1.30;;;;;;;13.39;37.60;100056.00;25096;1315;3027576;-66
2022/04/29 03:04:02;;;;;;;4.80;1.60;;;;;;;13.38;37.91;100056.23;25133;1314;3047675;-67
2022/04/29 03:06:35;;;;;;;2.80;1.40;;;;;;;13.36;37.95;100061.46;25150;1314;3054737;-69
2022/04/29 03:09:04;;;;;;;4.00;1.60;;;;;;;13.35;37.88;100064.86;25106;1314;3026449;-66
2022/04/29 03:11:34;;;;;;;3.70;1.40;;;;;;;13.26;38.00;100065.77;25143;1315;3050993;-67
2022/04/29 03:14:03;;;;;;;2.10;1.40;;;;;;;13.30;37.92;100063.95;25061;1314;3026954;-69
2022/04/29 03:16:35;;;;;;;2.70;1.30;;;;;;;13.28;37.89;100066.71;25138;1314;3071177;-67
2022/04/29 03:19:04;;;;;;;2.20;1.40;;;;;;;13.31;37.87;100075.16;25112;1314;3027181;-65
2022/04/29 03:21:35;;;;;;;4.50;1.50;;;;;;;13.33;37.90;100075.89;25098;1315;3027117;-67
2022/04/29 03:24:07;;;;;;;5.10;1.50;;;;;;;13.33;37.96;100074.87;25115;1314;3026697;-66
2022/04/29 03:26:38;;;;;;;3.10;1.30;;;;;;;13.28;38.15;100075.33;25122;1314;3026598;-66
2022/04/29 03:29:07;;;;;;;3.30;1.60;;;;;;;13.27;38.17;100075.58;25131;1314;3028875;-67
2022/04/29 03:31:37;;;;;;;3.30;1.70;;;;;;;13.27;38.24;100077.69;25146;1314;3026762;-66
2022/04/29 03:34:24;;;;;;;4.60;1.70;;;;;;;13.20;38.43;100078.98;25092;1315;3053915;-67
2022/04/29 03:36:54;;;;;;;4.10;1.60;;;;;;;13.22;38.40;100079.38;25072;1315;3029668;-70
2022/04/29 03:39:24;;;;;;;5.90;1.90;;;;;;;13.25;38.40;100078.30;25073;1315;3026740;-65
2022/04/29 03:41:57;;;;;;;3.50;1.60;;;;;;;13.29;38.51;100079.82;25104;1314;3026763;-66
2022/04/29 03:44:26;;;;;;;3.80;1.80;;;;;;;13.29;38.61;100081.58;25073;1317;3026544;-66
2022/04/29 03:46:57;;;;;;;6.70;2.20;;;;;;;13.32;38.61;100082.50;25154;1314;3049525;-68
2022/04/29 03:49:42;;;;;;;4.30;1.90;;;;;;;13.31;38.72;100084.84;25079;1315;3054763;-69
2022/04/29 03:52:30;;;;;;;6.60;1.90;;;;;;;13.32;38.91;100085.66;25093;1318;3053762;-68
2022/04/29 03:55:01;;;;;;;7.10;1.70;;;;;;;13.34;38.97;100086.58;25127;1314;3026218;-66
2022/04/29 03:57:35;;;;;;;6.60;2.40;;;;;;;13.42;38.86;100085.39;25113;1315;3026795;-68
2022/04/29 04:00:05;;;;;;;7.70;1.90;;;;;;;13.45;38.78;100084.89;25068;1315;3026157;-67
2022/04/29 04:02:59;;;;;;;6.50;1.80;;;;;;;13.49;38.64;100090.09;25126;1314;3053811;-67
2022/04/29 04:05:30;;;;;;;6.30;1.80;;;;;;;13.45;38.55;100094.38;25108;1314;3026397;-67
2022/04/29 04:08:01;;;;;;;5.70;2.20;;;;;;;13.45;38.65;100090.48;25125;1315;3028010;-69
2022/04/29 04:11:05;;;;;;;3.70;1.50;;;;;;;13.42;38.70;100095.06;25125;1314;3052185;-69
2022/04/29 04:13:35;;;;;;;6.00;1.60;;;;;;;13.42;38.53;100098.27;25108;1315;3026955;-66
2022/04/29 04:16:15;;;;;;;5.90;1.60;;;;;;;13.45;38.29;100097.16;25155;1315;3059013;-67
2022/04/29 04:18:45;;;;;;;4.80;1.30;;;;;;;13.40;38.43;100100.09;25112;1315;3026189;-67
2022/04/29 04:21:14;;;;;;;4.80;1.40;;;;;;;13.43;38.22;100101.70;25113;1314;3026615;-69
2022/04/29 04:23:49;;;;;;;3.40;1.60;;;;;;;13.46;38.51;100104.51;25115;1315;3059022;-65
2022/04/29 04:26:19;;;;;;;6.20;1.30;;;;;;;13.47;38.09;100110.96;25120;1314;3027235;-67
2022/04/29 04:28:48;;;;;;;7.60;1.50;;;;;;;13.57;37.43;100111.34;25097;1314;3026941;-67
2022/04/29 04:31:21;;;;;;;5.70;1.70;;;;;;;13.60;37.25;100113.47;25109;1314;3026781;-65
2022/04/29 04:33:54;;;;;;;6.70;1.70;;;;;;;13.67;37.12;100116.89;25099;1315;3071373;-68
2022/04/29 04:36:23;;;;;;;5.30;1.50;;;;;;;13.67;36.55;100118.55;25141;1315;3026653;-66
2022/04/29 04:38:56;;;;;;;2.50;1.20;;;;;;;13.65;36.65;100117.37;25077;1314;3054759;-68
2022/04/29 04:41:25;;;;;;;6.60;1.70;;;;;;;13.71;36.23;100119.32;25127;1315;3026172;-67
2022/04/29 04:43:58;;;;;;;3.80;1.50;;;;;;;13.78;36.20;100120.65;25134;1314;3027490;-69
2022/04/29 04:46:29;;;;;;;3.90;1.40;;;;;;;13.82;36.49;100123.23;25093;1315;3027123;-66
2022/04/29 04:49:11;;;;;;;7.50;1.40;;;;;;;13.85;36.58;100127.95;25106;1314;3055047;-68
2022/04/29 04:52:01;;;;;;;3.50;1.40;;;;;;;13.88;36.59;100134.42;25100;1314;3059339;-67
2022/04/29 04:54:31;;;;;;;6.70;1.40;;;;;;;13.90;36.28;100133.45;25106;1315;3026582;-69
2022/04/29 04:57:02;;;;;;;5.90;1.20;;;;;;;13.92;36.44;100134.36;25128;1318;3027053;-67
2022/04/29 04:59:32;;;;;;;2.60;1.30;;;;;;;14.02;36.35;100132.83;25182;1315;3027377;-68
2022/04/29 05:02:02;;;;;;;4.50;1.40;;;;;;;14.01;36.19;100135.04;25076;1318;3026704;-66
2022/04/29 05:05:03;;;;;;;6.60;1.60;;;;;;;14.06;36.16;100136.96;25065;1315;3052308;-68
2022/04/29 05:07:43;;;;;;;4.50;1.30;;;;;;;14.07;36.15;100136.57;25140;1315;3054731;-68
2022/04/29 05:10:13;;;;;;;12.80;1.80;;;;;;;14.13;36.11;100138.64;25151;1314;3027053;-68
2022/04/29 05:12:52;;;;;;;6.50;1.20;;;;;;;14.15;36.39;100138.19;25103;1318;3058818;-68
2022/04/29 05:15:32;;;;;;;3.80;1.50;;;;;;;14.24;36.22;100135.13;25118;1314;3049710;-66
2022/04/29 05:18:02;;;;;;;9.90;2.00;;;;;;;14.29;35.83;100135.68;25132;1314;3026527;-71
2022/04/29 05:20:34;;;;;;;6.30;1.80;;;;;;;14.31;35.88;100130.25;25123;1315;3026738;-66
2022/04/29 05:23:08;;;;;;;;;;;;;;;14.33;35.72;100132.58;25109;1315;3069575;-70
2022/04/29 05:25:50;;;;;;;2.90;1.10;;;;;;;14.41;35.74;100136.44;25073;1314;3049059;-68
2022/04/29 05:28:52;;;;;;;4.90;1.40;;;;;;;14.47;35.44;100139.44;25031;1314;3054075;-71
2022/04/29 05:31:42;;;;;;;5.20;1.30;;;;;;;14.50;35.71;100139.45;25101;1315;3053782;-67
2022/04/29 05:34:36;;;;;;;2.10;1.20;;;;;;;14.59;35.22;100139.35;25023;1318;3059451;-66
2022/04/29 05:37:37;;;;;;;6.10;1.20;;;;;;;14.69;35.06;100138.54;25127;1315;3049121;-67
2022/04/29 05:43:03;;;;;;;3.90;1.20;;;;;;;14.83;34.74;100139.34;25135;1315;3054404;-66
2022/04/29 05:45:37;;;;;;;6.10;1.60;;;;;;;14.90;34.62;100139.59;25121;1315;3068453;-68
2022/04/29 05:48:11;;;;;;;;;;;;;;;14.89;34.76;100143.88;25135;1314;3049034;-65
2022/04/29 05:50:40;;;;;;;1.80;1.20;;;;;;;14.92;34.77;100144.38;25119;1315;3027023;-67
2022/04/29 05:53:09;;;;;;;2.80;1.40;;;;;;;14.92;34.40;100143.67;25298;1318;3026894;-66
2022/04/29 05:55:40;;;;;;;5.80;1.70;;;;;;;14.90;35.04;100144.57;25387;1318;3047855;-65
2022/04/29 05:58:09;;;;;;;5.80;1.60;;;;;;;15.06;34.96;100146.48;25420;1315;3026680;-63
2022/04/29 06:00:39;;;;;;;10.10;1.80;;;;;;;15.12;34.80;100144.45;25195;1315;3067955;-66
2022/04/29 06:03:13;;;;;;;7.90;1.30;;;;;;;15.17;34.37;100149.06;25128;1315;3053242;-66
2022/04/29 06:05:42;;;;;;;4.10;1.60;;;;;;;15.35;34.33;100147.98;25112;1314;3026383;-67
2022/04/29 06:08:13;;;;;;;5.90;1.30;;;;;;;15.44;33.91;100151.23;25155;1314;3068520;-66
2022/04/29 06:10:52;;;;;;;4.40;1.10;;;;;;;15.52;33.65;100154.90;25125;1314;3051790;-69
2022/04/29 06:13:22;;;;;;;4.10;1.30;;;;;;;15.65;33.36;100155.12;25153;1314;3026756;-66
2022/04/29 06:16:12;;;;;;;4.70;1.30;;;;;;;15.71;33.19;100159.40;25129;1315;3053493;-70
2022/04/29 06:18:41;;;;;;;9.70;1.20;;;;;;;15.72;32.82;100157.79;25138;1315;3029377;-65
2022/04/29 06:21:40;;;;;;;7.00;1.60;;;;;;;15.81;33.21;100158.56;25069;1315;3055037;-68
2022/04/29 06:24:21;;;;;;;6.60;1.60;;;;;;;15.86;33.22;100157.70;25139;1315;3057295;-70
2022/04/29 06:26:51;;;;;;;4.30;1.40;;;;;;;15.91;32.82;100158.90;25133;1318;3026697;-68
2022/04/29 06:29:22;;;;;;;6.10;1.70;;;;;;;15.95;33.03;100160.55;25086;1315;3026439;-68
2022/04/29 06:31:51;;;;;;;7.40;2.30;;;;;;;15.92;33.19;100161.17;25102;1315;3027481;-68
2022/04/29 06:34:52;;;;;;;6.90;1.60;;;;;;;15.88;33.33;100162.33;25107;1315;3053075;-68
2022/04/29 06:37:22;;;;;;;9.30;2.10;;;;;;;16.03;32.74;100159.79;25091;1314;3026280;-66
2022/04/29 06:39:53;;;;;;;9.00;1.80;;;;;;;16.04;32.15;100153.59;25120;1315;3027143;-70
2022/04/29 06:42:25;;;;;;;4.50;2.00;;;;;;;16.13;32.24;100155.04;25147;1318;3026254;-67
2022/04/29 06:45:16;;;;;;;4.20;1.50;;;;;;;16.10;32.11;100146.10;25108;1315;3051732;-66
2022/04/29 06:48:07;;;;;;;5.10;1.50;;;;;;;16.17;31.59;100139.56;25169;1314;3058274;-70
2022/04/29 06:51:12;;;;;;;12.30;1.80;;;;;;;16.23;31.61;100146.54;25002;1319;3048885;-68
2022/04/29 06:53:49;;;;;;;3.40;2.10;;;;;;;16.24;31.88;100141.34;25124;1315;3054316;-67
2022/04/29 06:56:22;;;;;;;4.90;1.80;;;;;;;16.42;31.62;100144.40;25107;1315;3026668;-65
2022/04/29 06:58:53;;;;;;;5.90;1.80;;;;;;;16.52;31.31;100150.08;25107;1315;3026783;-68
2022/04/29 07:01:25;;;;;;;;;;;;;;;16.53;31.56;100154.56;25153;1315;3051750;-68
2022/04/29 07:03:55;;;;;;;6.00;2.10;;;;;;;16.66;31.99;100158.24;25156;1315;3026571;-68
2022/04/29 07:06:24;;;;;;;10.30;2.00;;;;;;;16.88;31.41;100153.05;25082;1315;3028082;-68
2022/04/29 07:08:54;;;;;;;4.60;1.80;;;;;;;16.96;30.46;100150.73;25131;1315;3048157;-70
2022/04/29 07:11:43;;;;;;;5.70;1.70;;;;;;;17.06;30.21;100150.61;25130;1315;3054722;-65
2022/04/29 07:14:34;;;;;;;5.20;1.40;;;;;;;17.05;29.81;100151.74;25127;1315;3052151;-69
2022/04/29 07:17:15;;;;;;;10.00;1.90;;;;;;;17.23;29.83;100156.23;25165;1315;3055950;-68
2022/04/29 07:19:54;;;;;;;7.40;1.60;;;;;;;17.23;30.30;100156.62;25103;1315;3049467;-67
2022/04/29 07:22:25;;;;;;;7.10;1.60;;;;;;;17.43;29.80;100152.89;25138;1315;3027460;-66
2022/04/29 07:24:54;;;;;;;6.10;1.50;;;;;;;17.55;29.90;100152.70;25132;1314;3027455;-69
2022/04/29 07:27:28;;;;;;;11.60;1.90;;;;;;;17.71;29.17;100150.66;25137;1314;3026173;-71
2022/04/29 07:30:02;;;;;;;;;;;;;;;17.78;29.21;100152.48;25141;1315;3053428;-64
2022/04/29 07:32:41;;;;;;;6.50;1.20;;;;;;;17.90;29.49;100150.11;25127;1315;3055453;-69
2022/04/29 07:44:06;;;;;;;5.30;1.50;;;;;;;18.27;27.44;100145.11;25160;1315;3052935;-71
2022/04/29 07:46:42;;;;;;;4.60;1.60;;;;;;;18.17;27.66;100144.91;25106;1315;3051679;-65
2022/04/29 07:49:30;;;;;;;3.60;1.60;;;;;;;18.16;27.88;100151.00;25100;1314;3068986;-69
2022/04/29 07:51:59;;;;;;;6.30;2.00;;;;;;;18.20;27.33;100147.87;25109;1318;3026896;-64
2022/04/29 07:54:29;;;;;;;3.90;1.70;;;;;;;18.11;27.06;100145.78;25119;1315;3027139;-64
2022/04/29 07:56:58;;;;;;;5.40;1.50;;;;;;;18.17;27.30;100144.89;25082;1315;3026886;-69
2022/04/29 07:59:30;;;;;;;7.30;1.00;;;;;;;18.10;26.42;100147.41;25127;1314;3026496;-68
2022/04/29 08:02:37;;;;;;;6.50;1.70;;;;;;;18.10;25.95;100147.95;24949;1321;3049924;-69
2022/04/29 08:05:07;;;;;;;7.00;1.60;;;;;;;18.28;26.18;100144.42;24948;1321;3026521;-65
2022/04/29 08:07:37;;;;;;;2.90;1.40;;;;;;;18.13;26.06;100144.17;25083;1318;3026735;-65
2022/04/29 08:10:07;;;;;;;5.40;1.20;;;;;;;18.19;25.93;100148.46;25070;1315;3029684;-68
2022/04/29 08:12:37;;;;;;;6.00;1.30;;;;;;;18.20;26.14;100150.00;25165;1314;3054620;-70
2022/04/29 08:15:26;;;;;;;4.50;1.50;;;;;;;18.42;25.97;100143.05;25127;1314;3054287;-72
2022/04/29 08:18:07;;;;;;;6.70;1.30;;;;;;;18.38;25.81;100141.60;25096;1314;3071211;-67
2022/04/29 08:20:36;;;;;;;6.90;1.90;;;;;;;18.51;26.09;100149.04;25163;1314;3026799;-68
2022/04/29 08:23:07;;;;;;;6.20;1.80;;;;;;;18.63;26.21;100147.38;25124;1314;3027732;-72
2022/04/29 08:25:39;;;;;;;5.00;1.90;;;;;;;18.69;25.88;100149.37;25120;1314;3027195;-66
2022/04/29 08:28:10;;;;;;;6.10;1.90;;;;;;;18.79;25.93;100146.88;25110;1315;3026317;-67
2022/04/29 08:30:39;;;;;;;6.20;1.40;;;;;;;18.83;25.59;100147.80;25098;1314;3026361;-69
2022/04/29 08:33:14;;;;;;;2.30;1.20;;;;;;;18.85;25.52;100144.45;25113;1314;3027259;-69
2022/04/29 08:35:45;;;;;;;4.30;1.50;;;;;;;18.90;24.89;100143.46;25128;1315;3054275;-70
2022/04/29 08:38:19;;;;;;;7.00;1.30;;;;;;;18.67;24.64;100140.10;25114;1315;3026133;-69
2022/04/29 08:40:55;;;;;;;3.70;1.20;;;;;;;18.64;24.47;100139.30;25116;1314;3051395;-68
2022/04/29 08:43:28;;;;;;;3.60;1.10;;;;;;;18.55;24.89;100139.16;25070;1315;3026534;-67
2022/04/29 08:45:59;;;;;;;4.20;1.20;;;;;;;18.43;25.40;100136.59;25102;1314;3026654;-67
2022/04/29 08:48:57;;;;;;;3.40;1.00;;;;;;;18.38;25.33;100132.19;25134;1314;3058851;-68
2022/04/29 08:51:34;;;;;;;10.80;1.60;;;;;;;18.42;25.66;100126.38;25070;1315;3050746;-70
2022/04/29 08:54:04;;;;;;;9.70;1.10;;;;;;;18.42;25.96;100122.79;25123;1314;3029012;-69
2022/04/29 08:59:25;;;;;;;4.30;1.20;;;;;;;18.37;26.36;100124.70;25074;1315;3068596;-67
2022/04/29 09:01:54;;;;;;;6.60;1.80;;;;;;;18.25;26.14;100121.73;25087;1314;3030808;-69
2022/04/29 09:04:23;;;;;;;4.40;1.50;;;;;;;18.21;26.27;100118.34;25155;1314;3027151;-67
2022/04/29 09:06:52;;;;;;;6.80;1.40;;;;;;;18.17;26.57;100124.55;25100;1315;3070833;-68
2022/04/29 09:09:22;;;;;;;6.70;1.70;;;;;;;18.00;27.04;100127.66;25111;1314;3026841;-69
2022/04/29 09:11:51;;;;;;;12.70;1.60;;;;;;;17.99;26.98;100128.08;25124;1314;3026572;-68
2022/04/29 09:14:24;;;;;;;6.30;1.70;;;;;;;17.87;26.90;100129.64;25128;1314;3071000;-67
2022/04/29 09:16:55;;;;;;;11.20;1.60;;;;;;;17.68;27.60;100126.66;25143;1314;3026772;-71
2022/04/29 09:19:32;;;;;;;6.20;1.10;;;;;;;17.61;27.04;100130.45;25148;1314;3026802;-68
2022/04/29 09:22:03;;;;;;;10.20;1.50;;;;;;;17.61;27.11;100125.09;25157;1314;3052931;-71
2022/04/29 09:24:36;;;;;;;7.00;1.20;;;;;;;17.52;27.13;100127.27;25129;1314;3057463;-69
2022/04/29 09:27:28;;;;;;;5.20;1.20;;;;;;;17.43;27.08;100128.31;25061;1314;3051489;-70
2022/04/29 09:30:02;;;;;;;8.20;1.70;;;;;;;17.29;27.27;100130.64;25078;1315;3054038;-69
2022/04/29 09:32:47;;;;;;;7.30;1.40;;;;;;;17.43;27.47;100128.27;25116;1314;3051472;-66
2022/04/29 09:35:55;;;;;;;4.40;1.40;;;;;;;17.53;27.46;100127.52;24986;1321;3071206;-70
2022/04/29 09:41:20;;;;;;;6.90;1.80;;;;;;;17.63;28.13;100121.23;25040;1317;3051804;-64
2022/04/29 09:43:49;;;;;;;9.30;1.80;;;;;;;17.53;28.32;100120.26;25084;1314;3071633;-68
2022/04/29 09:46:23;;;;;;;8.80;1.90;;;;;;;17.49;28.35;100123.77;25092;1314;3026467;-70
2022/04/29 09:49:09;;;;;;;12.00;2.10;;;;;;;17.33;28.50;100126.45;25097;1314;3051772;-66
2022/04/29 09:51:48;;;;;;;3.80;1.50;;;;;;;17.34;28.62;100130.38;25139;1315;3069836;-69
2022/04/29 09:54:28;;;;;;;6.50;1.70;;;;;;;17.32;28.64;100127.38;25168;1315;3052430;-69
2022/04/29 09:57:01;;;;;;;7.00;1.90;;;;;;;17.26;28.57;100127.88;25110;1315;3054200;-66
2022/04/29 09:59:33;;;;;;;5.80;1.30;;;;;;;17.20;28.52;100127.46;25092;1314;3026755;-70
2022/04/29 10:02:03;;;;;;;3.20;1.90;;;;;;;17.25;28.35;100122.24;25139;1314;3026193;-67
2022/04/29 10:04:34;;;;;;;10.20;2.10;;;;;;;17.29;28.56;100126.03;25090;1314;3026691;-66
2022/04/29 10:07:04;;;;;;;6.60;1.60;;;;;;;17.18;28.69;100126.54;25132;1315;3027741;-71
2022/04/29 10:09:35;;;;;;;8.20;1.60;;;;;;;17.22;28.63;100125.67;25151;1315;3026121;-69
2022/04/29 10:12:09;;;;;;;6.70;1.80;;;;;;;17.21;28.20;100121.31;25132;1314;3029790;-68
2022/04/29 10:14:41;;;;;;;7.30;1.80;;;;;;;17.15;28.54;100123.02;25090;1316;3053072;-69
2022/04/29 10:23:13;;;;;;;2.90;1.20;;;;;;;17.13;29.22;100118.38;25468;1314;3056711;-69
2022/04/29 10:25:44;;;;;;;6.60;1.80;;;;;;;17.18;29.12;100116.80;25099;1315;3026474;-70
2022/04/29 10:28:21;;;;;;;5.60;1.70;;;;;;;17.36;28.77;100115.90;25134;1315;3026320;-67
2022/04/29 10:31:05;;;;;;;8.40;2.30;;;;;;;17.34;28.82;100120.09;25145;1315;3052409;-66
2022/04/29 10:33:36;;;;;;;5.20;1.70;;;;;;;17.33;29.36;100124.13;25143;1314;3069909;-67
2022/04/29 10:36:07;;;;;;;6.90;2.00;;;;;;;17.38;29.44;100122.82;25159;1315;3027515;-68
2022/04/29 10:38:39;;;;;;;5.80;2.00;;;;;;;17.51;29.48;100124.85;25136;1314;3026628;-71
2022/04/29 10:41:13;;;;;;;6.10;1.70;;;;;;;17.52;29.66;100129.38;25108;1314;3056665;-67
2022/04/29 10:43:50;;;;;;;3.80;2.30;;;;;;;17.36;30.18;100132.02;25154;1314;3026324;-67
2022/04/29 10:46:20;;;;;;;6.60;1.80;;;;;;;17.11;30.82;100130.44;25119;1315;3049760;-68
2022/04/29 10:48:54;;;;;;;5.30;2.10;;;;;;;16.90;31.12;100133.76;25145;1315;3052271;-66
2022/04/29 10:51:55;;;;;;;6.80;2.10;;;;;;;16.91;31.38;100129.98;25152;1315;3053162;-69
2022/04/29 10:54:33;;;;;;;12.40;2.50;;;;;;;16.87;31.31;100132.77;25145;1314;3071824;-66
2022/04/29 10:57:41;;;;;;;9.30;2.80;;;;;;;16.60;31.18;100131.75;25136;1314;3049490;-67
2022/04/29 11:00:14;;;;;;;7.80;2.70;;;;;;;16.39;31.37;100134.73;25116;1315;3055626;-70
2022/04/29 11:02:43;;;;;;;10.70;2.80;;;;;;;16.63;30.95;100136.85;25148;1314;3026255;-68
2022/04/29 11:05:36;;;;;;;6.80;2.80;;;;;;;16.71;30.69;100129.91;25100;1314;3027052;-69
2022/04/29 11:08:11;;;;;;;6.60;2.60;;;;;;;16.60;30.56;100132.85;25125;1315;3052659;-67
2022/04/29 11:10:58;;;;;;;7.00;2.50;;;;;;;16.65;30.46;100126.80;25135;1314;3053866;-69
2022/04/29 11:13:27;;;;;;;8.10;2.50;;;;;;;16.74;30.20;100118.19;25133;1314;3053937;-69
2022/04/29 11:16:16;;;;;;;6.40;2.90;;;;;;;16.65;30.16;100115.44;25130;1314;3071469;-71
2022/04/29 11:19:28;;;;;;;7.30;3.00;;;;;;;16.70;30.26;100109.81;25138;1314;3052419;-66
2022/04/29 11:24:53;;;;;;;6.90;3.00;;;;;;;16.63;30.84;100103.95;25093;1314;3054280;-67
2022/04/29 11:27:42;;;;;;;9.60;2.50;;;;;;;16.56;30.91;100098.13;25077;1315;3056151;-68
2022/04/29 11:30:34;;;;;;;13.20;3.20;;;;;;;16.54;31.32;100098.23;25059;1315;3049591;-69
2022/04/29 11:33:07;;;;;;;11.00;3.00;;;;;;;16.67;31.46;100096.25;25144;1315;3026502;-68
2022/04/29 11:35:36;;;;;;;10.70;3.30;;;;;;;16.69;31.49;100086.34;25135;1314;3026781;-67
2022/04/29 11:38:07;;;;;;;5.60;3.30;;;;;;;16.68;31.75;100088.93;25126;1313;3048897;-69
2022/04/29 11:40:37;;;;;;;8.80;3.10;;;;;;;16.72;31.91;100085.75;25145;1314;3026712;-67
2022/04/29 11:43:08;;;;;;;9.70;3.40;;;;;;;16.69;32.06;100087.27;25144;1314;3027539;-66
2022/04/29 11:45:39;;;;;;;13.30;3.70;;;;;;;16.55;32.28;100081.77;25104;1314;3028063;-63
2022/04/29 11:48:09;;;;;;;14.00;3.50;;;;;;;16.58;32.51;100084.19;25116;1314;3029458;-68
2022/04/29 11:50:38;;;;;;;10.80;3.10;;;;;;;16.70;32.38;100085.78;25090;1314;3026602;-65
2022/04/29 11:53:09;;;;;;;9.30;2.90;;;;;;;16.69;32.46;100080.91;25104;1314;3026857;-67
2022/04/29 11:55:38;;;;;;;9.80;3.40;;;;;;;16.69;32.53;100073.98;25125;1314;3026609;-69
2022/04/29 11:58:37;;;;;;;8.40;2.90;;;;;;;16.67;32.84;100074.14;25148;1314;3026790;-64
2022/04/29 12:01:06;;;;;;;16.50;3.30;;;;;;;16.81;32.62;100069.73;25136;1314;3052733;-67
2022/04/29 12:03:35;;;;;;;6.00;2.90;;;;;;;16.81;32.54;100069.92;25099;1314;3026618;-67
2022/04/29 12:06:03;;;;;;;6.00;2.90;;;;;;;16.85;32.50;100065.10;22514;1314;13382671;-69
2022/04/29 12:08:39;;;;;;;10.70;4.30;;;;;;;17.05;32.37;100064.84;25078;1314;3028072;-64
2022/04/29 12:11:30;;;;;;;8.90;3.50;;;;;;;17.18;32.17;100062.94;25104;1314;3053214;-69